Tiempo atmosférico en la estación meteorológica de Amorebieta--Etxano, Bizkaia (100 m.)



Fecha
DESCASC
Temp. máxima en grados centígrados (hora)
DESCASC
Temp. mínima en grados centígrados (hora)
DESCASC
Temp. media en grados centígrados
DESCASC
Racha de viento máxima en m/sg (hora)
DESCASC
Velocidad máxima media en intervalos de 10 minutos(hora)
DESCASC
Precipitaciones diarias en mm
DESCASC
Precipitaciones de 00:00 a 06:00 en mm
DESCASC
Precipitaciones de 06:00 a 12:00 en mm
DESCASC
Precipitaciones de 12:00 a 18:00 en mm
DESCASC
Precipitaciones de 18:00 a 24:00 en mm
DESCASC
23-05-2018 22.7 (18:10) 11.2 (04:20) 17 5.56 (16:10) 3.33 (23:00) 0 0 0 0 0
22-05-2018 24.2 (15:50) 10.1 (05:20) 17.2 7.78 (16:30) 5 (17:30) 0 0 0 0 0
21-05-2018 24.8 (13:50) 9.9 (06:40) 17.3 8.89 (17:10) 6.11 (17:10) 0 0 0 0 0
20-05-2018 21.1 (17:20) 8.5 (00:00) 14.8 7.78 (16:40) 4.72 (15:40) 0 0 0 0 0
19-05-2018 21.8 (14:30) 11.9 (00:00) 16.8 6.94 (18:10) 4.72 (18:10) 0 0 0 0 0
18-05-2018 20.4 (16:50) 12.7 (00:00) 16.5 6.67 (16:50) 4.17 (20:00) 0 0 0 0 0
17-05-2018 18 (17:10) 7.7 (00:00) 12.8 5.83 (18:20) 3.89 (18:30) 0 0 0 0 0
16-05-2018 16.1 (18:30) 9.9 (00:00) 13 5.28 (18:50) 3.33 (18:50) 0.2 0 0.2 0 0
15-05-2018 16.8 (16:50) 9.1 (00:00) 12.9 9.17 (11:40) 5.83 (16:30) 0 0 0 0 0
14-05-2018 15.6 (15:30) 8.9 (00:00) 12.3 11.39 (16:50) 6.67 (15:30) 7.2 6 1.2 0 0
13-05-2018 14.2 (17:20) 4.5 (00:00) 9.3 11.94 (17:50) 6.67 (17:30) 16.6 0.4 2.4 4.8 9
12-05-2018 12.9 (00:00) 6.3 (00:00) 9.6 13.89 (18:10) 9.17 (18:10) 12.4 0 9.6 0.4 2.4
11-05-2018 24.3 (13:40) 4.7 (06:20) 14.5 10.28 (14:00) 6.94 (14:00) 0 0 0 0 0
10-05-2018 16 (16:00) 7.6 (00:00) 11.8 9.44 (14:00) 6.39 (14:20) 5.8 1.4 4.4 0 0
09-05-2018 17 (15:40) 11.7 (00:00) 14.3 6.11 (18:10) 3.89 (18:30) 0 0 0 0 0
08-05-2018 15.7 (16:00) 12.6 (00:00) 14.2 9.72 (17:20) 6.11 (17:20) 0.2 0 0.2 0 0
07-05-2018 25.1 (16:00) 9.6 (00:00) 17.4 8.06 (19:30) 5.28 (19:30) 0 0 0 0 0
06-05-2018 24.2 (14:20) 7.8 (00:00) 16 8.33 (16:10) 5.28 (16:00) 0 0 0 0 0
05-05-2018 19.1 (17:50) 7 (00:00) 13.1 6.67 (13:10) 5 (18:50) 0 0 0 0 0
04-05-2018 15 (15:00) 6.3 (00:00) 10.7 8.61 (15:20) 5 (15:20) 0 0 0 0 0
03-05-2018 14.4 (16:10) 9.1 (00:00) 11.8 11.67 (14:40) 7.5 (14:00) 4 2.8 1.2 0 0
02-05-2018 16.6 (13:10) 6.1 (00:00) 11.4 6.67 (14:50) 4.72 (15:10) 18.8 0 0 0 18.8
01-05-2018 15.2 (19:10) 6.7 (04:40) 10.9 7.5 (17:40) 4.17 (15:30) 3.2 2.8 0.4 0 0
30-04-2018 9.8 (13:50) 7.1 (00:00) 8.5 7.5 (15:30) 4.72 (15:30) 16.4 3.4 1.2 3.2 8.6
29-04-2018 14.6 (14:10) 8.2 (00:00) 11.4 9.72 (14:50) 5 (15:20) 2.6 0 0 0.4 2.2
28-04-2018 11.6 (16:50) 9 (00:00) 10.3 4.44 (17:10) 2.78 (17:20) 5.6 4.6 0.8 0 0.2

Gráficas

Temp. máximas Temp. mínimas Temp. medias Precipitaciones Rachas de viento máximas Velocidades máximas media en intervalos de 10 minutos

Datos horarios

Fecha y hora oficial Temperatura (ºC) Velocidad del viento (km/h) Dirección del viento Racha (km/h) Dirección de racha Precipitación (mm) Presión (hPa) Tendencia (hPa) Humedad (%)
2018-05-27 23:00:00 -- -- -- -- -- -- -- -- --
2018-05-27 22:00:00 -- -- -- -- -- -- -- -- --
2018-05-27 21:00:00 -- -- -- -- -- -- -- -- --
2018-05-27 20:00:00 15.7 6 Noroeste 13 Noroeste 0 -- -- 95
2018-05-27 19:00:00 15.8 8 Norte 19 Norte 0 -- -- 95
2018-05-27 18:00:00 16.2 10 Norte 18 Norte 0 -- -- 94
2018-05-27 17:00:00 16.7 9 Norte 23 Norte 0 -- -- 89
2018-05-27 16:00:00 16.6 12 Norte 25 Norte 0 -- -- 90
2018-05-27 15:00:00 17 9 Norte 21 Norte 0 -- -- 88
2018-05-27 14:00:00 17.4 8 Nordeste 16 Noroeste 0 -- -- 86
2018-05-27 13:00:00 17.5 2 Este 7 Nordeste 0 -- -- 84
2018-05-27 12:00:00 17 0 Calma 9 Sur 0 -- -- 83
2018-05-27 11:00:00 16.4 4 Sudoeste 9 Sudoeste 0 -- -- 88
2018-05-27 10:00:00 15.3 0 Calma 4 Este 0 -- -- 93
2018-05-27 09:00:00 14.2 2 Sur 5 Sudeste 0 -- -- 95
2018-05-27 08:00:00 13.5 3 Sudeste 9 Sudeste 0 -- -- 97
2018-05-27 07:00:00 13 3 Este 6 Sudeste 0 -- -- 97
2018-05-27 06:00:00 13.2 2 Sudeste 8 Este 0 -- -- 97
2018-05-27 05:00:00 13.2 3 Sur 6 Este 0 -- -- 98
2018-05-27 04:00:00 13.3 2 Sur 5 Este 0 -- -- 98
2018-05-27 03:00:00 12.9 3 Oeste 8 Noroeste 0 -- -- 98
2018-05-27 02:00:00 12.6 3 Norte 7 Noroeste 0 -- -- 97
2018-05-27 01:00:00 13.3 3 Este 5 Este 0 -- -- 96
2018-05-27 00:00:00 13.4 0 Calma 5 Sur 0 -- -- 94
2018-05-26 23:00:00 14.4 3 Sudeste 5 Sudeste 0 -- -- 90
2018-05-26 22:00:00 15.9 2 Sur 14 Noroeste 0 -- -- 85
2018-05-26 21:00:00 17.8 12 Noroeste 25 Noroeste 0 -- -- 73
2018-05-26 20:00:00 20.3 11 Noroeste 21 Noroeste 0 -- -- 76
2018-05-26 19:00:00 20.6 5 Oeste 17 Noroeste 0 -- -- 72
2018-05-26 18:00:00 19 9 Oeste 24 Oeste 0 -- -- 81
2018-05-26 17:00:00 17.9 16 Noroeste 34 Noroeste 0.6 -- -- 83
2018-05-26 16:00:00 20.7 9 Este 22 Sur 0 -- -- 68
2018-05-26 15:00:00 19.7 3 Sudeste 13 Sur 0 -- -- 83
2018-05-26 14:00:00 21 9 Sudeste 21 Este 0 -- -- 71
2018-05-26 13:00:00 17.4 8 Sudeste 17 Este 0 -- -- 86
2018-05-26 12:00:00 16.1 4 Sudeste 18 Sudoeste 0.2 -- -- 95
2018-05-26 11:00:00 15.9 6 Oeste 14 Sudoeste 1.6 -- -- 97
2018-05-26 10:00:00 16.2 5 Este 11 Este 0 -- -- 97
2018-05-26 09:00:00 15.6 4 Sudeste 9 Sudeste 0 -- -- 99
2018-05-26 08:00:00 15.5 3 Este 8 Este 0 -- -- 100
2018-05-26 07:00:00 15.5 2 Sudeste 5 Este 0 -- -- 100
2018-05-26 06:00:00 15.5 2 Este 5 Este 0 -- -- 100
2018-05-26 05:00:00 15.6 2 Sudeste 6 Este 0 -- -- 100
2018-05-26 04:00:00 15.7 0 Calma 4 Nordeste 0 -- -- 99
2018-05-26 03:00:00 15.8 2 Sudoeste 5 Norte 2.2 -- -- 99
2018-05-26 02:00:00 15.9 0 Calma 8 Este 1.2 -- -- 99
2018-05-26 01:00:00 15.9 2 Sudoeste 13 Noroeste 0 -- -- 98
2018-05-26 00:00:00 16.1 3 Sudoeste 9 Sudoeste 4.8 -- -- 98
2018-05-25 23:00:00 16.4 5 Norte 25 Oeste 2 -- -- 96
2018-05-25 22:00:00 17.2 8 Oeste 17 Noroeste 0.8 -- -- 92
2018-05-25 21:00:00 17.7 6 Norte 14 Noroeste 0 -- -- 88
2018-05-25 20:00:00 18.4 6 Noroeste 10 Noroeste 0 -- -- 87
2018-05-25 19:00:00 18.7 8 Norte 14 Norte 0 -- -- 85
2018-05-25 18:00:00 19.1 6 Norte 13 Noroeste 0 -- -- 84
2018-05-25 17:00:00 20.5 6 Noroeste 16 Noroeste 0 -- -- 77
2018-05-25 16:00:00 20.2 4 Noroeste 10 Sudoeste 0 -- -- 78
2018-05-25 15:00:00 19.6 4 Noroeste 10 Norte 0 -- -- 81
2018-05-25 14:00:00 18.4 2 Noroeste 9 Noroeste 0 -- -- 89
2018-05-25 13:00:00 17.4 2 Sudoeste 8 Este 0.4 -- -- 95
2018-05-25 12:00:00 16.7 3 Noroeste 19 Noroeste 1.8 -- -- 96
2018-05-25 11:00:00 17.7 14 Oeste 24 Sudoeste 0.4 -- -- 86
2018-05-25 10:00:00 17.5 3 Sudeste 28 Sudeste 0 -- -- 91
2018-05-25 09:00:00 15.7 10 Sudeste 24 Sudeste 0.4 -- -- 96
2018-05-25 08:00:00 14.9 0 Calma 9 Sudeste 0 -- -- 98
2018-05-25 07:00:00 14.9 6 Sur 16 Noroeste 0 -- -- 97
2018-05-25 06:00:00 15.1 11 Noroeste 24 Oeste 0 -- -- 97
2018-05-25 05:00:00 15.4 4 Noroeste 7 Sur 0 -- -- 96
2018-05-25 04:00:00 15.9 4 Sur 14 Noroeste 0 -- -- 94
2018-05-25 03:00:00 16.7 13 Noroeste 24 Oeste 0.4 -- -- 94
2018-05-25 02:00:00 16.9 0 Calma 17 Oeste 1.2 -- -- 97
2018-05-25 01:00:00 17.3 7 Noroeste 17 Norte 0.4 -- -- 94
2018-05-25 00:00:00 17.5 5 Noroeste 18 Oeste 0 -- -- 93
2018-05-24 23:00:00 17.6 10 Oeste 16 Oeste 0 -- -- 93
2018-05-24 22:00:00 17.6 12 Oeste 23 Oeste 0 -- -- 93
2018-05-24 21:00:00 18.9 17 Noroeste 24 Noroeste 0 -- -- 89
2018-05-24 20:00:00 19.7 9 Norte 20 Noroeste 0 -- -- 83
2018-05-24 19:00:00 21.3 15 Noroeste 24 Noroeste 0 -- -- 77
2018-05-24 18:00:00 23.7 8 Norte 22 Norte 0 -- -- 68
2018-05-24 17:00:00 22 10 Norte 28 Norte 0 -- -- 74
2018-05-24 16:00:00 24 17 Norte 28 Norte 0 -- -- 69
2018-05-24 15:00:00 24 17 Norte 26 Norte 0 -- -- 68
2018-05-24 14:00:00 25.4 4 Este 12 Noroeste 0.2 -- -- 57
2018-05-24 13:00:00 23.6 6 Norte 12 Noroeste 0 -- -- 63
2018-05-24 12:00:00 22.3 6 Este 14 Este 0 -- -- 65
2018-05-24 11:00:00 20.5 4 Este 9 Nordeste 0 -- -- 75
2018-05-24 10:00:00 17.6 2 Norte 5 Sur 0 -- -- 95
2018-05-24 09:00:00 15.9 2 Sur 6 Sudeste 0 -- -- 99
2018-05-24 08:00:00 15.1 3 Sudeste 8 Sudeste 0 -- -- 99
2018-05-24 07:00:00 15.3 3 Sur 9 Norte 0 -- -- 98
2018-05-24 06:00:00 15.5 2 Sudoeste 10 Noroeste 0 -- -- 98
2018-05-24 05:00:00 15.8 6 Sur 17 Sudeste 0.2 -- -- 97
2018-05-24 04:00:00 16 7 Sudeste 14 Sudeste 1 -- -- 97
2018-05-24 03:00:00 16.2 5 Sudeste 8 Sudeste 0 -- -- 95
2018-05-24 02:00:00 16.5 2 Norte 14 Noroeste 0 -- -- 93
2018-05-24 01:00:00 16.8 6 Noroeste 12 Norte 0 -- -- 88
2018-05-24 00:00:00 16.9 4 Noroeste 15 Norte 0 -- -- 86
2018-05-23 23:00:00 17.6 12 Norte 19 Norte 0 -- -- 82
2018-05-23 22:00:00 18.9 5 Noroeste 8 Norte 0 -- -- 78
2018-05-23 21:00:00 20.5 3 Sudeste 9 Este 0 -- -- 74
2018-05-23 20:00:00 21.4 4 Sudoeste 10 Sur 0 -- -- 64
2018-05-23 19:00:00 22.1 4 Sudoeste 9 Sudoeste 0 -- -- 63
2018-05-23 18:00:00 22.3 3 Sudeste 12 Sudeste 0 -- -- 62
2018-05-23 17:00:00 21.9 6 Sudeste 20 Este 0 -- -- 63
2018-05-23 16:00:00 21.1 9 Este 19 Este 0 -- -- 58
2018-05-23 15:00:00 20.7 6 Este 17 Sudeste 0 -- -- 60
2018-05-23 14:00:00 21.1 4 Este 9 Este 0 -- -- 64
2018-05-23 13:00:00 20.9 2 Oeste 8 Oeste 0 -- -- 63
2018-05-23 12:00:00 19.5 0 Calma 8 Sur 0 -- -- 70
2018-05-23 11:00:00 17.2 2 Norte 8 Noroeste 0 -- -- 80
2018-05-23 10:00:00 15.6 0 Calma 7 Este 0 -- -- 88
2018-05-23 09:00:00 13.5 4 Sur 7 Sur 0 -- -- 95
2018-05-23 08:00:00 12.2 2 Sur 4 Sudeste 0 -- -- 97
2018-05-23 07:00:00 11.6 2 Sudoeste 6 Este 0 -- -- 97
2018-05-23 06:00:00 11.6 3 Sur 8 Sudeste 0 -- -- 97
2018-05-23 05:00:00 11.3 3 Este 9 Sudeste 0 -- -- 97
2018-05-23 04:00:00 11.5 3 Sudeste 7 Sudeste 0 -- -- 96
2018-05-23 03:00:00 11.7 4 Sudeste 6 Sudeste 0 -- -- 96
2018-05-23 02:00:00 12.1 0 Calma 6 Este 0 -- -- 94
2018-05-23 01:00:00 13 3 Sudeste 5 Sudeste 0 -- -- 92
2018-05-23 00:00:00 14.1 3 Sudeste 7 Noroeste 0 -- -- 90
2018-05-22 23:00:00 15.4 4 Oeste 10 Noroeste 0 -- -- 84
2018-05-22 22:00:00 17.7 5 Noroeste 15 Noroeste 0 -- -- 77
2018-05-22 21:00:00 20.3 8 Norte 15 Noroeste 0 -- -- 64
2018-05-22 20:00:00 21.6 7 Norte 21 Norte 0 -- -- 56
2018-05-22 19:00:00 21.9 13 Norte 21 Noroeste 0 -- -- 56
2018-05-22 18:00:00 23.8 13 Noroeste 27 Noroeste 0 -- -- 51
2018-05-22 17:00:00 23.7 17 Noroeste 28 Noroeste 0 -- -- 51
2018-05-22 16:00:00 24.1 14 Noroeste 26 Noroeste 0 -- -- 47
2018-05-22 15:00:00 23.9 13 Oeste 27 Oeste 0 -- -- 54
2018-05-22 14:00:00 22.7 13 Noroeste 23 Noroeste 0 -- -- 54
2018-05-22 13:00:00 21.7 6 Noroeste 17 Oeste 0 -- -- 57
2018-05-22 12:00:00 20.2 8 Norte 15 Oeste 0 -- -- 61
2018-05-22 11:00:00 18.2 5 Norte 10 Nordeste 0 -- -- 74
2018-05-22 10:00:00 15.2 5 Este 9 Sur 0 -- -- 84
2018-05-22 09:00:00 12.1 4 Sur 11 Sudeste 0 -- -- 96
2018-05-22 08:00:00 10.7 3 Sur 6 Sur 0 -- -- 100
2018-05-22 07:00:00 10.3 2 Este 6 Sudeste 0 -- -- 99
2018-05-22 06:00:00 10.6 2 Sudeste 5 Sudeste 0 -- -- 98
2018-05-22 05:00:00 10.2 4 Este 7 Este 0 -- -- 97
2018-05-22 04:00:00 10.4 0 Calma 5 Este 0 -- -- 97
2018-05-22 03:00:00 10.9 2 Sur 5 Este 0 -- -- 95
2018-05-22 02:00:00 11.6 4 Sudeste 6 Sudeste 0 -- -- 95
2018-05-22 01:00:00 12.2 0 Calma 5 Este 0 -- -- 92
2018-05-22 00:00:00 13.3 3 Sudeste 5 Este 0 -- -- 90
2018-05-21 23:00:00 14.9 2 Sur 10 Oeste 0 -- -- 85
2018-05-21 22:00:00 16.4 9 Oeste 12 Oeste 0 -- -- 79
2018-05-21 21:00:00 18.5 8 Oeste 23 Noroeste 0 -- -- 74
2018-05-21 20:00:00 20.3 17 Noroeste 28 Noroeste 0 -- -- 69
2018-05-21 19:00:00 21.1 7 Sur 24 Sur 0 -- -- 66
2018-05-21 18:00:00 19.9 9 Este 32 Oeste 0 -- -- 66
2018-05-21 17:00:00 21.8 18 Noroeste 31 Noroeste 0 -- -- 69
2018-05-21 16:00:00 23.1 15 Norte 30 Noroeste 0 -- -- 63
2018-05-21 15:00:00 23.6 14 Norte 25 Norte 0 -- -- 60
2018-05-21 14:00:00 24.8 10 Nordeste 19 Oeste 0 -- -- 55
2018-05-21 13:00:00 23.5 6 Nordeste 11 Nordeste 0 -- -- 57
2018-05-21 12:00:00 21.5 3 Sudoeste 8 Sur 0 -- -- 63
2018-05-21 11:00:00 18.4 3 Sudeste 8 Este 0 -- -- 72
2018-05-21 10:00:00 14.4 3 Sur 8 Sur 0 -- -- 84
2018-05-21 09:00:00 11.5 3 Sudeste 5 Este 0 -- -- 94
2018-05-21 08:00:00 10.3 0 Calma 6 Sudeste 0 -- -- 97
2018-05-21 07:00:00 9.9 3 Sur 6 Este 0 -- -- 97
2018-05-21 06:00:00 10.4 3 Este 8 Sudeste 0 -- -- 96
2018-05-21 05:00:00 10.9 6 Sudeste 10 Sudeste 0 -- -- 94
2018-05-21 04:00:00 11.7 4 Este 7 Sudeste 0 -- -- 92
2018-05-21 03:00:00 12.3 5 Este 7 Este 0 -- -- 92
2018-05-21 02:00:00 12.8 3 Este 6 Este 0 -- -- 92
2018-05-21 01:00:00 13.7 0 Calma 4 Noroeste 0 -- -- 91
2018-05-21 00:00:00 13.9 0 Calma 10 Noroeste 0 -- -- 90
2018-05-20 23:00:00 14.4 4 Noroeste 14 Norte 0 -- -- 84
2018-05-20 22:00:00 15.9 7 Noroeste 17 Noroeste 0 -- -- 74
2018-05-20 21:00:00 18.3 9 Noroeste 16 Noroeste 0 -- -- 65
2018-05-20 20:00:00 20.3 8 Noroeste 20 Norte 0 -- -- 61
2018-05-20 19:00:00 20.3 13 Norte 26 Nordeste 0 -- -- 60
2018-05-20 18:00:00 20.8 13 Norte 27 Norte 0 -- -- 57
2018-05-20 17:00:00 20.9 15 Norte 28 Norte 0 -- -- 55
2018-05-20 16:00:00 20 17 Norte 25 Norte 0 -- -- 53
2018-05-20 15:00:00 20.6 13 Norte 23 Norte 0 -- -- 59
2018-05-20 14:00:00 20.9 6 Norte 19 Noroeste 0 -- -- 57
2018-05-20 13:00:00 19.6 9 Oeste 16 Oeste 0 -- -- 62
2018-05-20 12:00:00 18.4 5 Oeste 15 Noroeste 0 -- -- 65
2018-05-20 11:00:00 16 5 Noroeste 12 Noroeste 0 -- -- 74
2018-05-20 10:00:00 13.9 3 Norte 8 Este 0 -- -- 87
2018-05-20 09:00:00 10.6 2 Sur 4 Sur 0 -- -- 98
2018-05-20 08:00:00 9 2 Este 6 Nordeste 0 -- -- 99
2018-05-20 07:00:00 8.6 0 Calma 6 Este 0 -- -- 97
2018-05-20 06:00:00 9.4 0 Calma 6 Este 0 -- -- 96
2018-05-20 05:00:00 10.5 3 Sudeste 5 Este 0 -- -- 96
2018-05-20 04:00:00 11.7 0 Calma 5 Sudeste 0 -- -- 93
2018-05-20 03:00:00 12.2 5 Este 8 Este 0 -- -- 94
2018-05-20 02:00:00 12.9 0 Calma 4 Norte 0 -- -- 92
2018-05-20 01:00:00 13.2 0 Calma 5 Noroeste 0 -- -- 93
2018-05-20 00:00:00 13.2 4 Noroeste 8 Noroeste 0 -- -- 94
2018-05-19 23:00:00 13.2 4 Noroeste 6 Noroeste 0 -- -- 89
2018-05-19 22:00:00 15.1 4 Noroeste 19 Norte 0 -- -- 82
2018-05-19 21:00:00 17.3 5 Norte 21 Nordeste 0 -- -- 69
2018-05-19 20:00:00 19 12 Norte 21 Norte 0 -- -- 64
2018-05-19 19:00:00 19.8 13 Norte 25 Norte 0 -- -- 62
2018-05-19 18:00:00 20 14 Norte 24 Norte 0 -- -- 60
2018-05-19 17:00:00 20 14 Norte 24 Norte 0 -- -- 59
2018-05-19 16:00:00 21.4 11 Noroeste 24 Noroeste 0 -- -- 60
2018-05-19 15:00:00 21.4 14 Noroeste 24 Noroeste 0 -- -- 65
2018-05-19 14:00:00 20.6 13 Oeste 20 Oeste 0 -- -- 66
2018-05-19 13:00:00 20.1 9 Oeste 19 Oeste 0 -- -- 72
2018-05-19 12:00:00 18.4 4 Noroeste 14 Norte 0 -- -- 73
2018-05-19 11:00:00 16.4 3 Oeste 12 Norte 0 -- -- 85
2018-05-19 10:00:00 14.7 5 Norte 12 Norte 0 -- -- 87
2018-05-19 09:00:00 13.5 3 Norte 6 Norte 0 -- -- 94
2018-05-19 08:00:00 13 0 Calma 4 Sudeste 0 -- -- 95
2018-05-19 07:00:00 12.6 2 Norte 4 Oeste 0 -- -- 98
2018-05-19 06:00:00 12.6 0 Calma 3 Sudeste 0 -- -- 98
2018-05-19 05:00:00 12.2 0 Calma 5 Este 0 -- -- 98
2018-05-19 04:00:00 11.9 2 Sudoeste 5 Norte 0 -- -- 97
2018-05-19 03:00:00 12.5 0 Calma 4 Sur 0 -- -- 95
2018-05-19 02:00:00 13.3 0 Calma 5 Norte 0 -- -- 94
2018-05-19 01:00:00 14.4 0 Calma 11 Norte 0 -- -- 91
2018-05-19 00:00:00 14.7 5 Noroeste 11 Norte 0 -- -- 92
2018-05-18 23:00:00 15.1 5 Norte 9 Noroeste 0 -- -- 91
2018-05-18 22:00:00 15.2 6 Norte 15 Norte 0 -- -- 91
2018-05-18 21:00:00 15.9 8 Norte 18 Norte 0 -- -- 88
2018-05-18 20:00:00 17.1 15 Norte 22 Norte 0 -- -- 82
2018-05-18 19:00:00 19.8 11 Norte 21 Norte 0 -- -- 73
2018-05-18 18:00:00 19.5 9 Noroeste 21 Noroeste 0 -- -- 71
2018-05-18 17:00:00 20.3 11 Noroeste 24 Oeste 0 -- -- 70
2018-05-18 16:00:00 18.9 11 Noroeste 21 Noroeste 0 -- -- 79
2018-05-18 15:00:00 18.7 9 Oeste 18 Oeste 0 -- -- 79
2018-05-18 14:00:00 16.3 11 Noroeste 18 Norte 0 -- -- 87
2018-05-18 13:00:00 16.4 6 Oeste 17 Noroeste 0 -- -- 86
2018-05-18 12:00:00 15.7 4 Oeste 10 Sudoeste 0 -- -- 86
2018-05-18 11:00:00 14.4 5 Norte 12 Noroeste 0 -- -- 90
2018-05-18 10:00:00 14 4 Noroeste 14 Noroeste 0 -- -- 90
2018-05-18 09:00:00 13.5 7 Noroeste 12 Noroeste 0 -- -- 92
2018-05-18 08:00:00 13.1 0 Calma 4 Sudoeste 0 -- -- 95
2018-05-18 07:00:00 12.9 0 Calma 5 Noroeste 0 -- -- 95
2018-05-18 06:00:00 12.9 3 Noroeste 6 Norte 0 -- -- 95
2018-05-18 05:00:00 12.7 2 Oeste 4 Oeste 0 -- -- 95
2018-05-18 04:00:00 12.8 3 Este 6 Noroeste 0 -- -- 94
2018-05-18 03:00:00 13.2 0 Calma 6 Norte 0 -- -- 93
2018-05-18 02:00:00 13.1 0 Calma 12 Norte 0 -- -- 92
2018-05-18 01:00:00 13.5 5 Norte 10 Norte 0 -- -- 90
2018-05-18 00:00:00 13.7 4 Noroeste 9 Noroeste 0 -- -- 89
2018-05-17 23:00:00 13.8 6 Norte 19 Norte 0 -- -- 88
2018-05-17 22:00:00 14.3 9 Noroeste 15 Noroeste 0 -- -- 86
2018-05-17 21:00:00 15 9 Noroeste 15 Noroeste 0 -- -- 84
2018-05-17 20:00:00 15.9 6 Nordeste 19 Norte 0 -- -- 80
2018-05-17 19:00:00 16.7 13 Norte 21 Norte 0 -- -- 76
2018-05-17 18:00:00 16.9 12 Norte 21 Norte 0 -- -- 75
2018-05-17 17:00:00 17.9 5 Sur 12 Sur 0 -- -- 73
2018-05-17 16:00:00 16.8 3 Noroeste 10 Este 0 -- -- 76
2018-05-17 15:00:00 16.5 3 Este 15 Sur 0 -- -- 74
2018-05-17 14:00:00 15.1 4 Este 18 Norte 0 -- -- 79
2018-05-17 13:00:00 15.3 5 Noroeste 13 Norte 0 -- -- 77
2018-05-17 12:00:00 14.9 4 Sudoeste 10 Sudoeste 0 -- -- 77
2018-05-17 11:00:00 13.8 2 Nordeste 9 Sudeste 0 -- -- 81
2018-05-17 10:00:00 11.5 5 Sudeste 10 Sudeste 0 -- -- 94
2018-05-17 09:00:00 9.5 0 Calma 8 Noroeste 0 -- -- 98
2018-05-17 08:00:00 8.8 0 Calma 8 Noroeste 0 -- -- 99
2018-05-17 07:00:00 8.7 0 Calma 2 Noroeste 0 -- -- 99
2018-05-17 06:00:00 8.5 0 Calma 2 Norte 0 -- -- 99
2018-05-17 05:00:00 8.4 2 Sudeste 6 Sudeste 0 -- -- 99
2018-05-17 04:00:00 7.9 5 Sudeste 8 Sudeste 0 -- -- 99
2018-05-17 03:00:00 7.7 3 Sur 5 Este 0 -- -- 98
2018-05-17 02:00:00 8.4 2 Sudeste 4 Este 0 -- -- 97
2018-05-17 01:00:00 9.3 0 Calma 3 Este 0 -- -- 96
2018-05-17 00:00:00 9.9 0 Calma 4 Noroeste 0 -- -- 95
2018-05-16 23:00:00 10.7 2 Oeste 4 Sudoeste 0 -- -- 91
2018-05-16 22:00:00 12.2 2 Sudoeste 13 Nordeste 0 -- -- 86
2018-05-16 21:00:00 13.9 6 Norte 17 Norte 0 -- -- 80
2018-05-16 20:00:00 14.5 10 Norte 18 Norte 0 -- -- 77
2018-05-16 19:00:00 15.6 11 Norte 19 Noroeste 0 -- -- 75
2018-05-16 18:00:00 16 9 Noroeste 15 Noroeste 0 -- -- 74
2018-05-16 17:00:00 15.6 3 Norte 15 Oeste 0 -- -- 78
2018-05-16 16:00:00 14.5 9 Oeste 16 Oeste 0 -- -- 82
2018-05-16 15:00:00 14.2 4 Norte 15 Noroeste 0 -- -- 82
2018-05-16 14:00:00 13.9 9 Noroeste 17 Noroeste 0 -- -- 84
2018-05-16 13:00:00 13.9 3 Oeste 13 Noroeste 0 -- -- 86
2018-05-16 12:00:00 13.9 2 Noroeste 10 Noroeste 0 -- -- 86
2018-05-16 11:00:00 13 4 Norte 11 Noroeste 0 -- -- 89
2018-05-16 10:00:00 11.9 7 Noroeste 10 Noroeste 0 -- -- 98
2018-05-16 09:00:00 11.2 0 Calma 4 Sur 0.2 -- -- 97
2018-05-16 08:00:00 10.5 0 Calma 3 Sudeste 0 -- -- 98
2018-05-16 07:00:00 10.2 0 Calma 3 Este 0 -- -- 97
2018-05-16 06:00:00 10 0 Calma 5 Sudeste 0 -- -- 96
2018-05-16 05:00:00 10.2 0 Calma 4 Sudeste 0 -- -- 94
2018-05-16 04:00:00 10.9 2 Sur 6 Sudeste 0 -- -- 92
2018-05-16 03:00:00 11 4 Sudeste 9 Sudeste 0 -- -- 90
2018-05-16 02:00:00 11.3 3 Sudeste 6 Sudeste 0 -- -- 90
2018-05-16 01:00:00 11.6 0 Calma 4 Oeste 0 -- -- 90
2018-05-16 00:00:00 11.5 4 Oeste 5 Oeste 0 -- -- 89
2018-05-15 23:00:00 11.1 0 Calma 9 Noroeste 0 -- -- 88
2018-05-15 22:00:00 11.9 5 Noroeste 16 Noroeste 0 -- -- 83
2018-05-15 21:00:00 13.9 11 Noroeste 22 Noroeste 0 -- -- 73
2018-05-15 20:00:00 15.9 12 Noroeste 18 Noroeste 0 -- -- 66
2018-05-15 19:00:00 15.2 10 Noroeste 21 Oeste 0 -- -- 68
2018-05-15 18:00:00 15.6 12 Noroeste 27 Noroeste 0 -- -- 67
2018-05-15 17:00:00 16.1 14 Noroeste 31 Noroeste 0 -- -- 66
2018-05-15 16:00:00 15.3 17 Noroeste 28 Noroeste 0 -- -- 68
2018-05-15 15:00:00 14.8 15 Noroeste 31 Norte 0 -- -- 68
2018-05-15 14:00:00 14.6 16 Noroeste 31 Noroeste 0 -- -- 72
2018-05-15 13:00:00 13.6 15 Noroeste 28 Oeste 0 -- -- 73
2018-05-15 12:00:00 13.1 19 Noroeste 33 Noroeste 0 -- -- 73
2018-05-15 11:00:00 13 13 Noroeste 29 Noroeste 0 -- -- 73
2018-05-15 10:00:00 12.3 9 Noroeste 15 Noroeste 0 -- -- 79
2018-05-15 09:00:00 10.9 3 Norte 9 Norte 0 -- -- 86
2018-05-15 08:00:00 9.7 3 Noroeste 6 Norte 0 -- -- 93
2018-05-15 07:00:00 9.3 0 Calma 5 Noroeste 0 -- -- 93
2018-05-15 06:00:00 9.4 2 Norte 10 Noroeste 0 -- -- 92
2018-05-15 05:00:00 9.3 6 Noroeste 12 Noroeste 0 -- -- 91
2018-05-15 04:00:00 9.3 7 Noroeste 12 Noroeste 0 -- -- 93
2018-05-15 03:00:00 9.6 8 Noroeste 12 Noroeste 0 -- -- 91
2018-05-15 02:00:00 10.3 7 Noroeste 14 Noroeste 0 -- -- 88
2018-05-15 01:00:00 10.8 9 Noroeste 13 Norte 0 -- -- 85
2018-05-15 00:00:00 11 6 Noroeste 11 Noroeste 0 -- -- 86
2018-05-14 23:00:00 10.8 8 Norte 14 Oeste 0 -- -- 85
2018-05-14 22:00:00 11.2 10 Oeste 19 Oeste 0 -- -- 83
2018-05-14 21:00:00 12 10 Noroeste 28 Noroeste 0 -- -- 79
2018-05-14 20:00:00 13.3 18 Noroeste 36 Noroeste 0 -- -- 71
2018-05-14 19:00:00 13.8 14 Noroeste 30 Noroeste 0 -- -- 73
2018-05-14 18:00:00 13.4 20 Noroeste 36 Noroeste 0 -- -- 70
2018-05-14 17:00:00 14 22 Noroeste 41 Noroeste 0 -- -- 66
2018-05-14 16:00:00 14.5 19 Noroeste 38 Noroeste 0 -- -- 61
2018-05-14 15:00:00 15.2 19 Noroeste 32 Noroeste 0 -- -- 62
2018-05-14 14:00:00 14.8 22 Noroeste 37 Noroeste 0 -- -- 67
2018-05-14 13:00:00 13.8 13 Oeste 28 Oeste 0 -- -- 80
2018-05-14 12:00:00 12.4 14 Noroeste 22 Oeste 0 -- -- 86
2018-05-14 11:00:00 11.7 13 Noroeste 18 Noroeste 0 -- -- 89
2018-05-14 10:00:00 10.4 6 Norte 11 Norte 0.2 -- -- 99
2018-05-14 09:00:00 9.4 0 Calma 3 Sudeste 0.2 -- -- 100
2018-05-14 08:00:00 9.1 0 Calma 5 Este 0 -- -- 100
2018-05-14 07:00:00 9 0 Calma 4 Este 0.8 -- -- 100
2018-05-14 06:00:00 8.9 0 Calma 6 Norte 1 -- -- 100
2018-05-14 05:00:00 9 0 Calma 5 Nordeste 0.4 -- -- 99
2018-05-14 04:00:00 9 0 Calma 5 Norte 1.2 -- -- 99
2018-05-14 03:00:00 9 3 Oeste 10 Noroeste 0.4 -- -- 99
2018-05-14 02:00:00 8.9 6 Norte 10 Norte 0.8 -- -- 99
2018-05-14 01:00:00 8.9 3 Norte 11 Oeste 2.2 -- -- 99
2018-05-11 20:00:00 -- -- -- -- -- -- -- -- --
2018-05-11 19:00:00 -- -- -- -- -- -- -- -- --
2018-05-11 18:00:00 -- -- -- -- -- -- -- -- --
2018-05-11 17:00:00 -- -- -- -- -- -- -- -- --
2018-05-11 16:00:00 18.9 15 Noroeste 32 Noroeste 0 -- -- 60
2018-05-11 15:00:00 20.2 20 Noroeste 34 Noroeste 0 -- -- 55
2018-05-11 14:00:00 23 25 Noroeste 37 Oeste 0 -- -- 54
2018-05-11 13:00:00 23.6 6 Sudeste 20 Este 0 -- -- 42
2018-05-11 12:00:00 21.5 12 Este 26 Este 0 -- -- 44
2018-05-11 11:00:00 19 9 Este 26 Este 0 -- -- 53
2018-05-11 10:00:00 13.9 3 Sur 6 Sudoeste 0 -- -- 76
2018-05-11 09:00:00 8.9 0 Calma 5 Este 0 -- -- 92
2018-05-11 08:00:00 5.8 3 Norte 11 Sudeste 0 -- -- 99
2018-05-11 07:00:00 4.8 6 Sudeste 10 Sudeste 0 -- -- 99
2018-05-11 06:00:00 4.9 0 Calma 6 Norte 0 -- -- 98
2018-05-11 05:00:00 5.1 3 Sur 9 Sudeste 0 -- -- 98
2018-05-11 04:00:00 5.5 5 Sudeste 8 Sudeste 0 -- -- 97
2018-05-11 03:00:00 6.3 4 Sudeste 9 Sudeste 0 -- -- 96
2018-05-11 02:00:00 6.8 4 Este 6 Este 0 -- -- 95
2018-05-11 01:00:00 7.7 3 Sudeste 15 Este 0 -- -- 92
2018-05-11 00:00:00 7.6 4 Sudeste 9 Sudeste 0 -- -- 92
2018-05-10 23:00:00 8.7 3 Sudeste 5 Este 0 -- -- 89
2018-05-10 22:00:00 10.2 2 Este 5 Sudoeste 0 -- -- 81
2018-05-10 21:00:00 12.8 2 Sur 19 Norte 0 -- -- 68
2018-05-10 20:00:00 14.4 11 Norte 25 Norte 0 -- -- 58
2018-05-10 19:00:00 15.2 10 Norte 22 Nordeste 0 -- -- 61
2018-05-10 18:00:00 14.3 9 Norte 19 Norte 0 -- -- 66
2018-05-10 17:00:00 14.5 12 Norte 26 Noroeste 0 -- -- 65
2018-05-10 16:00:00 16 15 Noroeste 31 Noroeste 0 -- -- 59
2018-05-10 15:00:00 15.8 13 Noroeste 34 Noroeste 0 -- -- 65
2018-05-10 14:00:00 14.9 21 Noroeste 34 Oeste 0 -- -- 67
2018-05-10 13:00:00 13.5 21 Noroeste 33 Noroeste 0 -- -- 76
2018-05-10 12:00:00 13.1 19 Oeste 30 Oeste 0 -- -- 87
2018-05-10 11:00:00 12.2 16 Oeste 26 Noroeste 1.2 -- -- 96
2018-05-10 10:00:00 11.4 8 Noroeste 16 Noroeste 0.8 -- -- 99
2018-05-10 09:00:00 11 4 Noroeste 9 Norte 0.2 -- -- 99
2018-05-10 08:00:00 10.7 6 Norte 12 Oeste 1.8 -- -- 99
2018-05-10 07:00:00 10.8 9 Oeste 14 Oeste 0.4 -- -- 98
2018-05-10 06:00:00 11.2 2 Norte 5 Norte 0.2 -- -- 98
2018-05-10 05:00:00 11.2 0 Calma 15 Noroeste 0.2 -- -- 97
2018-05-10 04:00:00 11.2 4 Noroeste 10 Noroeste 0 -- -- 97
2018-05-10 03:00:00 11.5 5 Noroeste 21 Oeste 0.2 -- -- 97
2018-05-10 02:00:00 11.5 12 Noroeste 20 Noroeste 0.6 -- -- 98
2018-05-10 01:00:00 11.8 10 Noroeste 16 Oeste 0.2 -- -- 96
2018-05-10 00:00:00 11.9 6 Noroeste 21 Noroeste 0 -- -- 95
2018-05-09 23:00:00 13.2 7 Noroeste 17 Noroeste 0 -- -- 88
2018-05-09 22:00:00 13.4 8 Noroeste 14 Noroeste 0 -- -- 88
2018-05-09 21:00:00 13.6 5 Norte 13 Noroeste 0 -- -- 88
2018-05-09 20:00:00 13.9 4 Norte 15 Nordeste 0 -- -- 88
2018-05-09 19:00:00 14.5 9 Norte 22 Norte 0 -- -- 88
2018-05-09 18:00:00 15.5 12 Norte 20 Norte 0 -- -- 85
2018-05-09 17:00:00 16.3 9 Norte 17 Norte 0 -- -- 81
2018-05-09 16:00:00 16.6 8 Norte 15 Oeste 0 -- -- 81
2018-05-09 15:00:00 16.2 5 Norte 13 Noroeste 0 -- -- 82
2018-05-09 14:00:00 15.5 8 Norte 14 Noroeste 0 -- -- 82
2018-05-09 13:00:00 14.9 5 Norte 10 Norte 0 -- -- 83
2018-05-09 12:00:00 14.2 0 Calma 5 Norte 0 -- -- 86
2018-05-09 11:00:00 13.5 0 Calma 6 Este 0 -- -- 86
2018-05-09 10:00:00 13 0 Calma 6 Sudeste 0 -- -- 89
2018-05-09 09:00:00 12.6 0 Calma 5 Este 0 -- -- 91
2018-05-09 08:00:00 12 3 Sur 4 Sur 0 -- -- 94
2018-05-09 07:00:00 11.8 0 Calma 4 Sudeste 0 -- -- 94
2018-05-09 06:00:00 11.7 0 Calma 5 Sudeste 0 -- -- 94
2018-05-09 05:00:00 11.8 4 Sudeste 5 Sudeste 0 -- -- 94
2018-05-09 04:00:00 11.9 0 Calma 5 Este 0 -- -- 93
2018-05-09 03:00:00 12.1 2 Este 6 Sudeste 0 -- -- 92
2018-05-09 02:00:00 12.2 3 Sur 8 Este 0 -- -- 92
2018-05-09 01:00:00 12.5 0 Calma 12 Noroeste 0 -- -- 90
2018-05-09 00:00:00 12.7 9 Oeste 20 Noroeste 0 -- -- 87
2018-05-08 23:00:00 12.8 12 Noroeste 24 Noroeste 0 -- -- 90
2018-05-08 22:00:00 13 13 Noroeste 24 Noroeste 0 -- -- 93
2018-05-08 21:00:00 13.6 12 Noroeste 24 Oeste 0 -- -- 90
2018-05-08 20:00:00 13.6 12 Noroeste 19 Noroeste 0 -- -- 92
2018-05-08 19:00:00 13.3 7 Noroeste 25 Noroeste 0 -- -- 94
2018-05-08 18:00:00 13.4 11 Noroeste 35 Noroeste 0 -- -- 95
2018-05-08 17:00:00 14.2 15 Noroeste 32 Oeste 0 -- -- 92
2018-05-08 16:00:00 15.7 12 Norte 21 Norte 0 -- -- 89
2018-05-08 15:00:00 15 9 Norte 21 Oeste 0 -- -- 93
2018-05-08 14:00:00 14.6 15 Noroeste 25 Noroeste 0 -- -- 95
2018-05-08 13:00:00 14.7 5 Noroeste 15 Noroeste 0 -- -- 94
2018-05-08 12:00:00 14.6 7 Noroeste 15 Norte 0 -- -- 95
2018-05-08 11:00:00 14 8 Norte 12 Norte 0 -- -- 98
2018-05-08 10:00:00 13.8 2 Nordeste 10 Norte 0 -- -- 99
2018-05-08 09:00:00 13.7 6 Norte 9 Norte 0 -- -- 100
2018-05-08 08:00:00 13.4 3 Norte 10 Norte 0.2 -- -- 100
2018-05-08 07:00:00 13.4 7 Norte 12 Oeste 0 -- -- 99
2018-05-08 06:00:00 13.7 3 Noroeste 10 Oeste 0 -- -- 99
2018-05-08 05:00:00 13.5 3 Noroeste 10 Norte 0 -- -- 98
2018-05-08 04:00:00 13.6 5 Noroeste 14 Noroeste 0 -- -- 98
2018-05-08 03:00:00 13.7 4 Oeste 6 Oeste 0 -- -- 97
2018-05-08 02:00:00 13.9 5 Norte 9 Noroeste 0 -- -- 96
2018-05-08 01:00:00 14.2 3 Noroeste 12 Norte 0 -- -- 96
2018-05-08 00:00:00 14.2 8 Norte 22 Noroeste 0 -- -- 96
2018-05-07 23:00:00 14.7 15 Noroeste 22 Noroeste 0 -- -- 93
2018-05-07 22:00:00 16.2 10 Noroeste 22 Noroeste 0 -- -- 83
2018-05-07 21:00:00 18.7 13 Oeste 21 Noroeste 0 -- -- 76
2018-05-07 20:00:00 21.1 12 Oeste 29 Noroeste 0 -- -- 70
2018-05-07 19:00:00 23.3 12 Noroeste 22 Noroeste 0 -- -- 65
2018-05-07 18:00:00 24.2 15 Noroeste 26 Noroeste 0 -- -- 61
2018-05-07 17:00:00 24.3 15 Norte 28 Norte 0 -- -- 56
2018-05-07 16:00:00 25.1 12 Noroeste 28 Norte 0 -- -- 56
2018-05-07 15:00:00 24.3 14 Norte 24 Norte 0 -- -- 59
2018-05-07 14:00:00 24 13 Norte 22 Noroeste 0 -- -- 62
2018-05-07 13:00:00 23.4 8 Oeste 16 Oeste 0 -- -- 66
2018-05-07 12:00:00 21.1 5 Noroeste 12 Noroeste 0 -- -- 74
2018-05-07 11:00:00 18.3 3 Noroeste 8 Noroeste 0 -- -- 76
2018-05-07 10:00:00 14.5 0 Calma 7 Este 0 -- -- 91
2018-05-07 09:00:00 12 0 Calma 8 Sudeste 0 -- -- 97
2018-05-07 08:00:00 10.3 4 Sudeste 6 Sudeste 0 -- -- 99
2018-05-07 07:00:00 9.7 2 Sur 4 Sur 0 -- -- 97
2018-05-07 06:00:00 10.1 2 Nordeste 4 Este 0 -- -- 97
2018-05-07 05:00:00 10.4 3 Sur 5 Norte 0 -- -- 97
2018-05-07 04:00:00 10.7 0 Calma 7 Este 0 -- -- 96
2018-05-07 03:00:00 11.4 2 Este 4 Este 0 -- -- 95
2018-05-07 02:00:00 12 2 Este 8 Sudeste 0 -- -- 93
2018-05-07 01:00:00 13 3 Este 6 Noroeste 0 -- -- 89
2018-05-07 00:00:00 14.3 3 Noroeste 10 Noroeste 0 -- -- 84
2018-05-06 23:00:00 15.7 6 Oeste 12 Noroeste 0 -- -- 78
2018-05-06 22:00:00 17.4 7 Noroeste 13 Noroeste 0 -- -- 74
2018-05-06 21:00:00 20.3 3 Oeste 8 Sudoeste 0 -- -- 65
2018-05-06 20:00:00 22.8 5 Oeste 19 Norte 0 -- -- 57
2018-05-06 19:00:00 22.1 11 Norte 25 Norte 0 -- -- 56
2018-05-06 18:00:00 21.9 17 Norte 28 Norte 0 -- -- 54
2018-05-06 17:00:00 22.4 14 Norte 30 Norte 0 -- -- 51
2018-05-06 16:00:00 23.1 19 Norte 27 Norte 0 -- -- 52
2018-05-06 15:00:00 24 13 Norte 20 Norte 0 -- -- 54
2018-05-06 14:00:00 23.6 8 Norte 15 Norte 0 -- -- 57
2018-05-06 13:00:00 21.9 4 Norte 10 Sudoeste 0 -- -- 59
2018-05-06 12:00:00 20 4 Sur 9 Sudoeste 0 -- -- 62
2018-05-06 11:00:00 16.7 4 Sudeste 14 Sudeste 0 -- -- 68
2018-05-06 10:00:00 12.8 5 Sudeste 10 Sudeste 0 -- -- 81
2018-05-06 09:00:00 9.6 4 Sur 8 Sur 0 -- -- 96
2018-05-06 08:00:00 8 0 Calma 5 Sudeste 0 -- -- 98
2018-05-06 07:00:00 8 3 Sudeste 9 Sudeste 0 -- -- 97
2018-05-06 06:00:00 8.3 2 Sur 6 Sudeste 0 -- -- 97
2018-05-06 05:00:00 8.3 3 Sur 8 Sudeste 0 -- -- 97
2018-05-06 04:00:00 8.9 3 Sudeste 6 Sudeste 0 -- -- 97
2018-05-06 03:00:00 9.2 3 Este 6 Este 0 -- -- 96
2018-05-06 02:00:00 9.7 0 Calma 7 Sudeste 0 -- -- 94
2018-05-06 01:00:00 10.5 3 Sudeste 6 Sudeste 0 -- -- 94
2018-05-06 00:00:00 10.6 0 Calma 7 Sudeste 0 -- -- 92
2018-05-05 23:00:00 11.3 3 Norte 5 Norte 0 -- -- 90
2018-05-05 22:00:00 12.8 2 Noroeste 16 Noroeste 0 -- -- 83
2018-05-05 21:00:00 14.7 10 Oeste 17 Oeste 0 -- -- 74
2018-05-05 20:00:00 16.8 12 Noroeste 22 Noroeste 0 -- -- 69
2018-05-05 19:00:00 17.5 17 Noroeste 23 Noroeste 0 -- -- 64
2018-05-05 18:00:00 18.8 14 Noroeste 24 Oeste 0 -- -- 64
2018-05-05 17:00:00 18.2 13 Oeste 22 Noroeste 0 -- -- 68
2018-05-05 16:00:00 18.2 8 Noroeste 20 Oeste 0 -- -- 64
2018-05-05 15:00:00 18.1 12 Oeste 24 Oeste 0 -- -- 69
2018-05-05 14:00:00 16.4 12 Noroeste 24 Oeste 0 -- -- 71
2018-05-05 13:00:00 14.6 12 Noroeste 23 Noroeste 0 -- -- 74
2018-05-05 12:00:00 13.7 12 Noroeste 22 Norte 0 -- -- 78
2018-05-05 11:00:00 12.3 6 Norte 12 Norte 0 -- -- 86
2018-05-05 10:00:00 10.2 3 Noroeste 6 Noroeste 0 -- -- 100
2018-05-05 09:00:00 8.8 4 Noroeste 6 Noroeste 0 -- -- 100
2018-05-05 08:00:00 7.9 0 Calma 2 Sur 0 -- -- 100
2018-05-05 07:00:00 7.4 0 Calma 3 Norte 0 -- -- 99
2018-05-05 06:00:00 7.1 0 Calma 2 Este 0 -- -- 99
2018-05-05 05:00:00 7.4 0 Calma 3 Sudeste 0 -- -- 98
2018-05-05 04:00:00 7.6 0 Calma 3 Este 0 -- -- 98
2018-05-05 03:00:00 7.3 0 Calma 2 Sudeste 0 -- -- 98
2018-05-05 02:00:00 7.6 0 Calma 4 Noroeste 0 -- -- 97
2018-05-05 01:00:00 8.1 3 Noroeste 5 Oeste 0 -- -- 95
2018-05-05 00:00:00 8.8 2 Oeste 4 Este 0 -- -- 94
2018-05-04 23:00:00 9.7 0 Calma 3 Sudoeste 0 -- -- 91
2018-05-04 22:00:00 11 0 Calma 13 Noroeste 0 -- -- 85
2018-05-04 21:00:00 12.6 6 Noroeste 22 Noroeste 0 -- -- 77
2018-05-04 20:00:00 14.4 13 Noroeste 25 Noroeste 0 -- -- 69
2018-05-04 19:00:00 13.8 10 Norte 28 Noroeste 0 -- -- 65
2018-05-04 18:00:00 13.8 14 Noroeste 26 Noroeste 0 -- -- 71
2018-05-04 17:00:00 13.7 12 Noroeste 27 Noroeste 0 -- -- 76
2018-05-04 16:00:00 14.4 17 Noroeste 31 Noroeste 0 -- -- 73
2018-05-04 15:00:00 15 12 Noroeste 26 Oeste 0 -- -- 69
2018-05-04 14:00:00 14.2 13 Noroeste 27 Norte 0 -- -- 76
2018-05-04 13:00:00 14.2 14 Noroeste 25 Noroeste 0 -- -- 78
2018-05-04 12:00:00 13.2 10 Norte 22 Noroeste 0 -- -- 81
2018-05-04 11:00:00 12.3 9 Noroeste 22 Noroeste 0 -- -- 84
2018-05-04 10:00:00 10.8 4 Noroeste 11 Noroeste 0 -- -- 91
2018-05-04 09:00:00 9 2 Sudoeste 8 Nordeste 0 -- -- 93
2018-05-04 08:00:00 8.2 0 Calma 6 Norte 0 -- -- 95
2018-05-04 07:00:00 7.6 3 Norte 5 Norte 0 -- -- 97
2018-05-04 06:00:00 7.1 3 Oeste 5 Norte 0 -- -- 97
2018-05-04 05:00:00 6.7 3 Norte 5 Oeste 0 -- -- 97
2018-05-04 04:00:00 6.4 4 Noroeste 6 Norte 0 -- -- 97
2018-05-04 03:00:00 6.7 2 Norte 4 Norte 0 -- -- 95
2018-05-04 02:00:00 7.5 3 Noroeste 5 Noroeste 0 -- -- 93
2018-05-04 01:00:00 7.9 2 Norte 7 Noroeste 0 -- -- 90
2018-05-04 00:00:00 9.2 2 Norte 12 Oeste 0 -- -- 84
2018-05-03 23:00:00 10.1 6 Oeste 14 Noroeste 0 -- -- 80
2018-05-03 22:00:00 10.5 8 Noroeste 24 Noroeste 0 -- -- 76
2018-05-03 21:00:00 11.3 17 Noroeste 33 Noroeste 0 -- -- 72
2018-05-03 20:00:00 11.9 21 Noroeste 36 Norte 0 -- -- 65
2018-05-03 19:00:00 13 22 Noroeste 39 Noroeste 0 -- -- 64
2018-05-03 18:00:00 13.6 21 Noroeste 34 Noroeste 0 -- -- 65
2018-05-03 17:00:00 13.5 19 Noroeste 38 Noroeste 0 -- -- 65
2018-05-03 16:00:00 14.3 21 Noroeste 38 Oeste 0 -- -- 62
2018-05-03 15:00:00 13.1 20 Noroeste 42 Noroeste 0 -- -- 64
2018-05-03 14:00:00 12.4 27 Noroeste 40 Noroeste 0 -- -- 65
2018-05-03 13:00:00 12.5 26 Noroeste 40 Noroeste 0 -- -- 66
2018-05-03 12:00:00 12.7 25 Noroeste 41 Noroeste 0 -- -- 66
2018-05-03 11:00:00 10.9 14 Noroeste 29 Noroeste 0 -- -- 83
2018-05-03 10:00:00 9.8 3 Noroeste 10 Noroeste 0 -- -- 95
2018-05-03 09:00:00 9.3 3 Sudoeste 26 Oeste 0.8 -- -- 92
2018-05-03 08:00:00 9.2 5 Noroeste 11 Noroeste 0 -- -- 96
2018-05-03 07:00:00 9.1 4 Noroeste 13 Noroeste 0.4 -- -- 97
2018-05-03 06:00:00 9.3 5 Noroeste 10 Noroeste 0 -- -- 96
2018-05-03 05:00:00 9.6 4 Noroeste 21 Noroeste 0 -- -- 96
2018-05-03 04:00:00 9.8 18 Noroeste 30 Noroeste 0.8 -- -- 97
2018-05-03 03:00:00 10.5 12 Noroeste 26 Noroeste 0.4 -- -- 96
2018-05-03 02:00:00 11.2 14 Noroeste 31 Noroeste 1.4 -- -- 98
2018-05-03 01:00:00 12 13 Noroeste 31 Noroeste 0.2 -- -- 99
2018-05-03 00:00:00 12.4 13 Noroeste 19 Oeste 1.8 -- -- 100
2018-05-02 23:00:00 12.2 11 Noroeste 24 Noroeste 2.2 -- -- 100
2018-05-02 22:00:00 12 12 Noroeste 19 Oeste 5.8 -- -- 99
2018-05-02 21:00:00 11.8 0 Calma 3 Sur 8.4 -- -- 98
2018-05-02 20:00:00 11.8 0 Calma 3 Sudeste 0.6 -- -- 97
2018-05-02 19:00:00 11.9 3 Sur 4 Sur 0 -- -- 96
2018-05-02 18:00:00 11.8 0 Calma 6 Noroeste 0 -- -- 95
2018-05-02 17:00:00 12 5 Noroeste 15 Oeste 0 -- -- 92
2018-05-02 16:00:00 13.1 9 Noroeste 24 Noroeste 0 -- -- 83
2018-05-02 15:00:00 14.7 15 Noroeste 24 Noroeste 0 -- -- 70
2018-05-02 14:00:00 15.9 12 Noroeste 22 Noroeste 0 -- -- 61
2018-05-02 13:00:00 16.5 6 Noroeste 17 Noroeste 0 -- -- 56
2018-05-02 12:00:00 14.6 8 Noroeste 17 Noroeste 0 -- -- 65
2018-05-02 11:00:00 12.7 10 Noroeste 16 Noroeste 0 -- -- 72
2018-05-02 10:00:00 10 0 Calma 5 Noroeste 0 -- -- 85
2018-05-02 09:00:00 8.1 0 Calma 8 Este 0 -- -- 90
2018-05-02 08:00:00 6.5 0 Calma 4 Sur 0 -- -- 98
2018-05-02 07:00:00 6.1 0 Calma 3 Sudeste 0 -- -- 97
2018-05-02 06:00:00 6.3 0 Calma 5 Sur 0 -- -- 97
2018-05-02 05:00:00 6.6 0 Calma 4 Sur 0 -- -- 96
2018-05-02 04:00:00 7 3 Sudeste 13 Sudeste 0 -- -- 94
2018-05-02 03:00:00 6.8 4 Sudeste 10 Sudeste 0 -- -- 96
2018-05-02 02:00:00 7 5 Sudeste 9 Sudeste 0 -- -- 95
2018-05-02 01:00:00 7.8 5 Sudeste 11 Sudeste 0 -- -- 92
2018-05-02 00:00:00 8 4 Sudeste 11 Sudeste 0 -- -- 91
2018-05-01 23:00:00 8.7 4 Sudeste 6 Sudeste 0 -- -- 90
2018-05-01 22:00:00 9.7 0 Calma 6 Oeste 0 -- -- 85
2018-05-01 21:00:00 11.8 2 Sudoeste 9 Sudeste 0 -- -- 75
2018-05-01 20:00:00 14.1 5 Sudeste 13 Este 0 -- -- 60
2018-05-01 19:00:00 15 8 Sur 19 Nordeste 0 -- -- 58
2018-05-01 18:00:00 14 14 Norte 27 Norte 0 -- -- 62
2018-05-01 17:00:00 13.5 11 Norte 21 Norte 0 -- -- 61
2018-05-01 16:00:00 12.8 8 Nordeste 25 Norte 0 -- -- 64
2018-05-01 15:00:00 14.1 6 Oeste 22 Noroeste 0 -- -- 55
2018-05-01 14:00:00 14 6 Oeste 19 Noroeste 0 -- -- 61
2018-05-01 13:00:00 11.8 8 Oeste 19 Noroeste 0 -- -- 73
2018-05-01 12:00:00 11.5 8 Oeste 20 Oeste 0 -- -- 74
2018-05-01 11:00:00 10 9 Noroeste 17 Noroeste 0 -- -- 85
2018-05-01 10:00:00 8.9 3 Este 8 Nordeste 0 -- -- 93
2018-05-01 09:00:00 7.7 0 Calma 9 Este 0 -- -- 99
2018-05-01 08:00:00 6.9 3 Sur 6 Sur 0 -- -- 100
2018-05-01 07:00:00 6.8 2 Noroeste 4 Nordeste 0.4 -- -- 100
2018-05-01 06:00:00 6.8 4 Sudoeste 8 Sur 1 -- -- 100
2018-05-01 05:00:00 6.8 0 Calma 14 Norte 0.2 -- -- 99
2018-05-01 04:00:00 6.9 0 Calma 11 Noroeste 0.2 -- -- 99
2018-05-01 03:00:00 7 8 Noroeste 15 Oeste 0.2 -- -- 98
2018-05-01 02:00:00 6.9 12 Oeste 19 Noroeste 0.6 -- -- 98
2018-05-01 01:00:00 6.9 0 Calma 9 Este 0.6 -- -- 99
2018-05-01 00:00:00 7.2 0 Calma 16 Noroeste 2 -- -- 97
2018-04-30 23:00:00 7.3 7 Oeste 17 Oeste 3.2 -- -- 95
2018-04-30 22:00:00 8.1 2 Sur 6 Sudoeste 2.4 -- -- 98
2018-04-30 21:00:00 8.3 4 Este 8 Este 0.4 -- -- 97
2018-04-30 20:00:00 8.5 3 Sur 4 Este 0.2 -- -- 97
2018-04-30 19:00:00 8.5 3 Este 6 Nordeste 0.4 -- -- 95
2018-04-30 18:00:00 8.3 2 Noroeste 13 Noroeste 1.2 -- -- 96
2018-04-30 17:00:00 8 9 Noroeste 22 Noroeste 1.4 -- -- 96
2018-04-30 16:00:00 8.5 12 Noroeste 27 Noroeste 0.4 -- -- 93
2018-04-30 15:00:00 9.6 12 Noroeste 20 Noroeste 0 -- -- 88
2018-04-30 14:00:00 9.8 12 Noroeste 21 Noroeste 0.2 -- -- 87
2018-04-30 13:00:00 9.4 10 Norte -- -- -- -- -- 87
2018-04-30 12:00:00 9.2 10 Norte 17 Noroeste 0.2 -- -- 87
2018-04-30 11:00:00 9.2 7 Noroeste 12 Noroeste 0 -- -- 92
2018-04-30 10:00:00 8.4 4 Noroeste 8 Noroeste 0.4 -- -- 99
2018-04-30 09:00:00 7.6 0 Calma 5 Sur 0 -- -- 98
2018-04-30 08:00:00 7.3 2 Este 6 Este 0 -- -- 99
2018-04-30 07:00:00 7.1 6 Este 9 Este 0.6 -- -- 98
2018-04-30 06:00:00 7.4 3 Sudeste 8 Este 1.2 -- -- 98
2018-04-30 05:00:00 7.6 2 Este 11 Oeste 1.8 -- -- 95
2018-04-30 04:00:00 8.1 5 Oeste 17 Oeste 0.2 -- -- 91
2018-04-30 03:00:00 8 2 Oeste 5 Oeste 0 -- -- 99
2018-04-30 02:00:00 8.2 0 Calma 4 Norte 0 -- -- 99
2018-04-30 01:00:00 8.2 0 Calma 5 Este 0.2 -- -- 98
2018-04-30 00:00:00 8.2 0 Calma 13 Este 0.2 -- -- 98
2018-04-29 23:00:00 8.3 4 Sudeste 9 Norte 0.2 -- -- 98
2018-04-29 22:00:00 8.4 0 Calma 8 Sur 0 -- -- 96
2018-04-29 21:00:00 8.8 4 Sudeste 13 Este 0.6 -- -- 95
2018-04-29 20:00:00 9.7 9 Sudoeste 21 Oeste 1.2 -- -- 86
2018-04-29 19:00:00 11 2 Sudeste 8 Este 0 -- -- 91
2018-04-29 18:00:00 10.9 4 Sudoeste 24 Noroeste 0.4 -- -- 88
2018-04-29 17:00:00 12.2 16 Noroeste 27 Noroeste 0 -- -- 73
2018-04-29 16:00:00 13.6 17 Noroeste 29 Noroeste 0 -- -- 72
2018-04-29 15:00:00 14.5 15 Noroeste 35 Oeste 0 -- -- 66
2018-04-29 14:00:00 13.9 16 Noroeste 29 Noroeste 0 -- -- 68
2018-04-29 13:00:00 13 11 Noroeste 20 Noroeste 0 -- -- 75
2018-04-29 12:00:00 12 7 Noroeste 14 Noroeste 0 -- -- 80
2018-04-29 11:00:00 10.9 9 Oeste 13 Oeste 0 -- -- 81
2018-04-29 10:00:00 9.9 2 Nordeste 4 Norte 0 -- -- 87
2018-04-29 09:00:00 9.3 0 Calma 3 Sudeste 0 -- -- 92
2018-04-29 08:00:00 9 0 Calma 4 Oeste 0 -- -- 94
2018-04-29 07:00:00 9.2 0 Calma 14 Oeste 0 -- -- 90
2018-04-29 06:00:00 9.4 6 Oeste 19 Noroeste 0 -- -- 91
2018-04-29 05:00:00 9.6 10 Noroeste 22 Oeste 0 -- -- 91
2018-04-29 04:00:00 10 9 Noroeste 16 Oeste 0 -- -- 97
2018-04-29 03:00:00 10.1 6 Noroeste 16 Noroeste 0 -- -- 99
2018-04-29 02:00:00 10.1 3 Noroeste 8 Noroeste 0 -- -- 99
2018-04-29 01:00:00 10.5 3 Nordeste 5 Nordeste 0 -- -- 98
2018-04-29 00:00:00 10.6 0 Calma 4 Norte 0 -- -- 98
2018-04-28 23:00:00 10.6 3 Sudoeste 5 Norte 0 -- -- 97
2018-04-28 22:00:00 10.7 2 Noroeste 8 Norte 0 -- -- 97
2018-04-28 21:00:00 10.8 0 Calma 3 Sudeste 0 -- -- 96
2018-04-28 20:00:00 10.9 0 Calma 8 Noroeste 0 -- -- 96
2018-04-28 19:00:00 10.8 4 Noroeste 10 Noroeste 0.2 -- -- 96
2018-04-28 18:00:00 10.8 6 Noroeste 16 Norte 0 -- -- 94
2018-04-28 17:00:00 11.5 5 Noroeste 12 Noroeste 0 -- -- 88
2018-04-28 16:00:00 11.1 3 Noroeste 10 Norte 0 -- -- 92
2018-04-28 15:00:00 10.8 6 Norte 11 Norte 0 -- -- 92
2018-04-28 14:00:00 10.5 4 Noroeste 8 Norte 0 -- -- 94
2018-04-28 13:00:00 10.3 5 Norte 6 Norte 0 -- -- 95
2018-04-28 12:00:00 10.1 5 Nordeste 8 Nordeste 0 -- -- 94
2018-04-28 11:00:00 10.2 4 Norte 8 Norte 0 -- -- 93
2018-04-28 10:00:00 9.8 0 Calma 3 Sur 0 -- -- 94
2018-04-28 09:00:00 9.3 0 Calma 5 Sudeste 0 -- -- 99
2018-04-28 08:00:00 9.1 0 Calma 3 Este 0 -- -- 99
2018-04-28 07:00:00 9 0 Calma 5 Nordeste 0.8 -- -- 99
2018-04-28 06:00:00 9.2 0 Calma 4 Sudoeste 0.6 -- -- 98
2018-04-28 05:00:00 9.4 0 Calma 4 Sur 2.4 -- -- 98
2018-04-28 04:00:00 9.7 0 Calma 8 Oeste 1.6 -- -- 96
2018-04-28 03:00:00 9.9 3 Nordeste 8 Norte 0 -- -- 94
2018-04-28 02:00:00 10.2 3 Norte 5 Norte 0 -- -- 93
2018-04-28 01:00:00 10.3 5 Noroeste 9 Noroeste 0 -- -- 91
2018-04-28 00:00:00 10.4 3 Sudeste 6 Sudeste 0 -- -- 92